sensor_id;sensor_type;location;lat;lon;timestamp;P1;durP1;ratioP1;P2;durP2;ratioP2
21472;SDS011;10898;48.072;11.682;2024-03-23T00:52:33;2.40;;;2.10;;
21472;SDS011;10898;48.072;11.682;2024-03-23T00:54:34;2.53;;;2.33;;
21472;SDS011;10898;48.072;11.682;2024-03-23T00:56:35;2.63;;;2.30;;
21472;SDS011;10898;48.072;11.682;2024-03-23T00:58:36;2.20;;;2.05;;
21472;SDS011;10898;48.072;11.682;2024-03-23T01:00:37;2.50;;;2.30;;
21472;SDS011;10898;48.072;11.682;2024-03-23T01:02:38;2.28;;;2.08;;
21472;SDS011;10898;48.072;11.682;2024-03-23T01:04:38;1.90;;;1.80;;
21472;SDS011;10898;48.072;11.682;2024-03-23T01:06:39;3.28;;;3.03;;
21472;SDS011;10898;48.072;11.682;2024-03-23T01:08:40;2.78;;;2.30;;
21472;SDS011;10898;48.072;11.682;2024-03-23T01:10:41;2.35;;;2.15;;
21472;SDS011;10898;48.072;11.682;2024-03-23T01:12:42;2.15;;;1.92;;
21472;SDS011;10898;48.072;11.682;2024-03-23T01:14:43;2.17;;;1.98;;
21472;SDS011;10898;48.072;11.682;2024-03-23T01:16:44;2.28;;;2.08;;
21472;SDS011;10898;48.072;11.682;2024-03-23T01:18:44;1.90;;;1.80;;
21472;SDS011;10898;48.072;11.682;2024-03-23T01:20:45;2.17;;;1.98;;
21472;SDS011;10898;48.072;11.682;2024-03-23T01:22:46;1.95;;;1.70;;
21472;SDS011;10898;48.072;11.682;2024-03-23T01:24:47;3.42;;;2.00;;
21472;SDS011;10898;48.072;11.682;2024-03-23T01:26:48;3.05;;;1.70;;
21472;SDS011;10898;48.072;11.682;2024-03-23T01:28:49;2.13;;;1.92;;
21472;SDS011;10898;48.072;11.682;2024-03-23T01:30:50;2.33;;;2.17;;
21472;SDS011;10898;48.072;11.682;2024-03-23T01:32:51;1.85;;;1.75;;
21472;SDS011;10898;48.072;11.682;2024-03-23T01:34:52;1.60;;;1.50;;
21472;SDS011;10898;48.072;11.682;2024-03-23T01:36:53;2.30;;;2.10;;
21472;SDS011;10898;48.072;11.682;2024-03-23T01:38:54;2.00;;;1.60;;
21472;SDS011;10898;48.072;11.682;2024-03-23T01:40:57;1.88;;;1.75;;
21472;SDS011;10898;48.072;11.682;2024-03-23T01:42:59;2.15;;;1.95;;
21472;SDS011;10898;48.072;11.682;2024-03-23T01:45:05;1.95;;;1.75;;
21472;SDS011;10898;48.072;11.682;2024-03-23T01:47:08;1.77;;;1.63;;
21472;SDS011;10898;48.072;11.682;2024-03-23T01:49:10;1.92;;;1.75;;
21472;SDS011;10898;48.072;11.682;2024-03-23T01:51:12;5.00;;;2.25;;
21472;SDS011;10898;48.072;11.682;2024-03-23T01:53:14;1.90;;;1.80;;
21472;SDS011;10898;48.072;11.682;2024-03-23T01:55:17;2.15;;;2.05;;
21472;SDS011;10898;48.072;11.682;2024-03-23T01:57:19;2.00;;;1.80;;
21472;SDS011;10898;48.072;11.682;2024-03-23T01:59:21;2.47;;;2.22;;
21472;SDS011;10898;48.072;11.682;2024-03-23T02:01:22;2.17;;;1.98;;
21472;SDS011;10898;48.072;11.682;2024-03-23T02:05:26;2.53;;;2.33;;
21472;SDS011;10898;48.072;11.682;2024-03-23T02:07:27;2.03;;;1.83;;
21472;SDS011;10898;48.072;11.682;2024-03-23T02:09:28;2.50;;;1.83;;
21472;SDS011;10898;48.072;11.682;2024-03-23T02:11:29;2.05;;;1.95;;
21472;SDS011;10898;48.072;11.682;2024-03-23T02:13:30;2.55;;;1.90;;
21472;SDS011;10898;48.072;11.682;2024-03-23T02:15:32;2.20;;;2.00;;
21472;SDS011;10898;48.072;11.682;2024-03-23T02:17:34;3.35;;;1.75;;
21472;SDS011;10898;48.072;11.682;2024-03-23T02:19:36;2.50;;;1.90;;
21472;SDS011;10898;48.072;11.682;2024-03-23T02:21:38;2.70;;;1.98;;
21472;SDS011;10898;48.072;11.682;2024-03-23T02:23:38;2.22;;;2.03;;
21472;SDS011;10898;48.072;11.682;2024-03-23T02:25:39;1.88;;;1.77;;
21472;SDS011;10898;48.072;11.682;2024-03-23T02:27:40;1.98;;;1.88;;
21472;SDS011;10898;48.072;11.682;2024-03-23T02:29:41;2.00;;;1.77;;
21472;SDS011;10898;48.072;11.682;2024-03-23T02:31:42;1.88;;;1.77;;
21472;SDS011;10898;48.072;11.682;2024-03-23T02:33:43;3.53;;;1.70;;
21472;SDS011;10898;48.072;11.682;2024-03-23T02:35:44;2.55;;;1.85;;
21472;SDS011;10898;48.072;11.682;2024-03-23T02:37:46;2.08;;;1.90;;
21472;SDS011;10898;48.072;11.682;2024-03-23T02:39:48;2.15;;;1.80;;
21472;SDS011;10898;48.072;11.682;2024-03-23T02:41:49;1.67;;;1.58;;
21472;SDS011;10898;48.072;11.682;2024-03-23T02:43:50;1.83;;;1.73;;
21472;SDS011;10898;48.072;11.682;2024-03-23T02:45:51;1.60;;;1.50;;
21472;SDS011;10898;48.072;11.682;2024-03-23T02:47:52;1.80;;;1.67;;
21472;SDS011;10898;48.072;11.682;2024-03-23T02:49:53;1.60;;;1.50;;
21472;SDS011;10898;48.072;11.682;2024-03-23T02:51:55;1.60;;;1.50;;
21472;SDS011;10898;48.072;11.682;2024-03-23T02:53:56;1.50;;;1.40;;
21472;SDS011;10898;48.072;11.682;2024-03-23T02:55:57;2.92;;;1.95;;
21472;SDS011;10898;48.072;11.682;2024-03-23T02:57:59;1.85;;;1.75;;
21472;SDS011;10898;48.072;11.682;2024-03-23T03:00:02;1.90;;;1.80;;
21472;SDS011;10898;48.072;11.682;2024-03-23T03:02:03;2.45;;;2.25;;
21472;SDS011;10898;48.072;11.682;2024-03-23T03:04:05;1.75;;;1.65;;
21472;SDS011;10898;48.072;11.682;2024-03-23T03:06:06;2.03;;;1.90;;
21472;SDS011;10898;48.072;11.682;2024-03-23T03:08:06;2.70;;;2.17;;
21472;SDS011;10898;48.072;11.682;2024-03-23T03:10:07;1.83;;;1.65;;
21472;SDS011;10898;48.072;11.682;2024-03-23T03:12:11;3.30;;;1.73;;
21472;SDS011;10898;48.072;11.682;2024-03-23T03:14:12;2.08;;;1.50;;
21472;SDS011;10898;48.072;11.682;2024-03-23T03:16:13;3.38;;;2.00;;
21472;SDS011;10898;48.072;11.682;2024-03-23T03:18:14;1.80;;;1.70;;
21472;SDS011;10898;48.072;11.682;2024-03-23T03:20:15;2.05;;;1.70;;
21472;SDS011;10898;48.072;11.682;2024-03-23T03:22:17;1.60;;;1.50;;
21472;SDS011;10898;48.072;11.682;2024-03-23T03:24:18;2.30;;;1.73;;
21472;SDS011;10898;48.072;11.682;2024-03-23T03:26:19;1.95;;;1.85;;
21472;SDS011;10898;48.072;11.682;2024-03-23T03:28:20;2.22;;;1.52;;
21472;SDS011;10898;48.072;11.682;2024-03-23T03:30:21;2.17;;;1.98;;
21472;SDS011;10898;48.072;11.682;2024-03-23T03:32:22;1.70;;;1.60;;
21472;SDS011;10898;48.072;11.682;2024-03-23T03:34:22;1.45;;;1.35;;
21472;SDS011;10898;48.072;11.682;2024-03-23T03:36:23;1.70;;;1.60;;
21472;SDS011;10898;48.072;11.682;2024-03-23T03:38:24;1.65;;;1.55;;
21472;SDS011;10898;48.072;11.682;2024-03-23T03:40:25;2.22;;;1.85;;
21472;SDS011;10898;48.072;11.682;2024-03-23T03:42:26;2.10;;;1.85;;
21472;SDS011;10898;48.072;11.682;2024-03-23T03:44:27;1.85;;;1.75;;
21472;SDS011;10898;48.072;11.682;2024-03-23T03:46:28;2.45;;;2.22;;
21472;SDS011;10898;48.072;11.682;2024-03-23T03:48:29;1.65;;;1.55;;
21472;SDS011;10898;48.072;11.682;2024-03-23T03:50:30;1.60;;;1.50;;
21472;SDS011;10898;48.072;11.682;2024-03-23T03:52:30;1.65;;;1.55;;
21472;SDS011;10898;48.072;11.682;2024-03-23T03:54:32;1.90;;;1.73;;
21472;SDS011;10898;48.072;11.682;2024-03-23T03:56:33;1.97;;;1.87;;
21472;SDS011;10898;48.072;11.682;2024-03-23T03:58:34;1.77;;;1.67;;
21472;SDS011;10898;48.072;11.682;2024-03-23T04:00:35;1.52;;;1.42;;
21472;SDS011;10898;48.072;11.682;2024-03-23T04:02:36;2.17;;;1.67;;
21472;SDS011;10898;48.072;11.682;2024-03-23T04:04:39;2.13;;;1.67;;
21472;SDS011;10898;48.072;11.682;2024-03-23T04:06:40;1.65;;;1.55;;
21472;SDS011;10898;48.072;11.682;2024-03-23T04:08:41;1.98;;;1.77;;
21472;SDS011;10898;48.072;11.682;2024-03-23T04:10:42;1.80;;;1.70;;
21472;SDS011;10898;48.072;11.682;2024-03-23T04:12:43;1.83;;;1.73;;
21472;SDS011;10898;48.072;11.682;2024-03-23T04:14:44;1.70;;;1.60;;
21472;SDS011;10898;48.072;11.682;2024-03-23T04:16:45;1.60;;;1.50;;
21472;SDS011;10898;48.072;11.682;2024-03-23T04:18:46;2.95;;;1.73;;
21472;SDS011;10898;48.072;11.682;2024-03-23T04:20:51;1.67;;;1.50;;
21472;SDS011;10898;48.072;11.682;2024-03-23T04:22:52;1.85;;;1.75;;
21472;SDS011;10898;48.072;11.682;2024-03-23T04:24:54;1.70;;;1.60;;
21472;SDS011;10898;48.072;11.682;2024-03-23T04:26:56;1.58;;;1.48;;
21472;SDS011;10898;48.072;11.682;2024-03-23T04:28:56;1.67;;;1.58;;
21472;SDS011;10898;48.072;11.682;2024-03-23T04:30:57;1.73;;;1.63;;
21472;SDS011;10898;48.072;11.682;2024-03-23T04:32:58;1.70;;;1.60;;
21472;SDS011;10898;48.072;11.682;2024-03-23T04:34:59;1.88;;;1.75;;
21472;SDS011;10898;48.072;11.682;2024-03-23T04:37:00;2.20;;;2.00;;
21472;SDS011;10898;48.072;11.682;2024-03-23T04:39:01;2.28;;;2.17;;
21472;SDS011;10898;48.072;11.682;2024-03-23T04:41:02;1.80;;;1.70;;
21472;SDS011;10898;48.072;11.682;2024-03-23T04:43:03;1.77;;;1.67;;
21472;SDS011;10898;48.072;11.682;2024-03-23T04:45:04;1.83;;;1.73;;
21472;SDS011;10898;48.072;11.682;2024-03-23T04:47:06;1.65;;;1.55;;
21472;SDS011;10898;48.072;11.682;2024-03-23T04:49:07;1.60;;;1.50;;
21472;SDS011;10898;48.072;11.682;2024-03-23T04:51:08;1.77;;;1.67;;
21472;SDS011;10898;48.072;11.682;2024-03-23T04:53:09;1.80;;;1.70;;
21472;SDS011;10898;48.072;11.682;2024-03-23T04:55:10;1.85;;;1.75;;
21472;SDS011;10898;48.072;11.682;2024-03-23T04:57:12;1.80;;;1.70;;
21472;SDS011;10898;48.072;11.682;2024-03-23T04:59:13;2.30;;;1.70;;
21472;SDS011;10898;48.072;11.682;2024-03-23T05:01:14;1.88;;;1.77;;
21472;SDS011;10898;48.072;11.682;2024-03-23T05:03:15;1.60;;;1.50;;
21472;SDS011;10898;48.072;11.682;2024-03-23T05:05:15;1.80;;;1.70;;
21472;SDS011;10898;48.072;11.682;2024-03-23T05:07:16;2.03;;;1.60;;
21472;SDS011;10898;48.072;11.682;2024-03-23T05:09:17;1.67;;;1.58;;
21472;SDS011;10898;48.072;11.682;2024-03-23T05:11:18;1.70;;;1.60;;
21472;SDS011;10898;48.072;11.682;2024-03-23T05:13:19;1.48;;;1.38;;
21472;SDS011;10898;48.072;11.682;2024-03-23T05:15:20;1.50;;;1.40;;
21472;SDS011;10898;48.072;11.682;2024-03-23T05:17:21;1.73;;;1.63;;
21472;SDS011;10898;48.072;11.682;2024-03-23T05:19:21;1.58;;;1.30;;
21472;SDS011;10898;48.072;11.682;2024-03-23T05:21:22;1.60;;;1.50;;
21472;SDS011;10898;48.072;11.682;2024-03-23T05:23:24;1.70;;;1.60;;
21472;SDS011;10898;48.072;11.682;2024-03-23T05:25:25;1.70;;;1.60;;
21472;SDS011;10898;48.072;11.682;2024-03-23T05:27:26;1.70;;;1.50;;
21472;SDS011;10898;48.072;11.682;2024-03-23T05:29:27;1.85;;;1.75;;
21472;SDS011;10898;48.072;11.682;2024-03-23T05:31:30;1.92;;;1.65;;
21472;SDS011;10898;48.072;11.682;2024-03-23T05:33:31;1.80;;;1.53;;
21472;SDS011;10898;48.072;11.682;2024-03-23T05:35:32;1.48;;;1.38;;
21472;SDS011;10898;48.072;11.682;2024-03-23T05:37:33;1.50;;;1.40;;
21472;SDS011;10898;48.072;11.682;2024-03-23T05:39:34;1.67;;;1.58;;
21472;SDS011;10898;48.072;11.682;2024-03-23T05:41:35;1.70;;;1.60;;
21472;SDS011;10898;48.072;11.682;2024-03-23T05:43:36;1.55;;;1.45;;
21472;SDS011;10898;48.072;11.682;2024-03-23T05:45:37;1.80;;;1.70;;
21472;SDS011;10898;48.072;11.682;2024-03-23T05:47:38;1.48;;;1.38;;
21472;SDS011;10898;48.072;11.682;2024-03-23T05:49:38;1.40;;;1.30;;
21472;SDS011;10898;48.072;11.682;2024-03-23T05:51:39;1.40;;;1.30;;
21472;SDS011;10898;48.072;11.682;2024-03-23T05:53:40;1.50;;;1.40;;
21472;SDS011;10898;48.072;11.682;2024-03-23T05:55:41;1.60;;;1.50;;
21472;SDS011;10898;48.072;11.682;2024-03-23T05:57:42;1.63;;;1.52;;
21472;SDS011;10898;48.072;11.682;2024-03-23T05:59:44;1.83;;;1.42;;
21472;SDS011;10898;48.072;11.682;2024-03-23T06:01:45;1.55;;;1.45;;
21472;SDS011;10898;48.072;11.682;2024-03-23T06:03:47;1.88;;;1.70;;
21472;SDS011;10898;48.072;11.682;2024-03-23T06:05:48;4.18;;;1.83;;
21472;SDS011;10898;48.072;11.682;2024-03-23T06:07:49;2.80;;;1.80;;
21472;SDS011;10898;48.072;11.682;2024-03-23T06:09:50;2.08;;;1.70;;
21472;SDS011;10898;48.072;11.682;2024-03-23T06:11:51;2.30;;;1.60;;
21472;SDS011;10898;48.072;11.682;2024-03-23T06:13:52;1.80;;;1.70;;
21472;SDS011;10898;48.072;11.682;2024-03-23T06:15:53;2.25;;;1.42;;
21472;SDS011;10898;48.072;11.682;2024-03-23T06:17:53;1.42;;;1.33;;
21472;SDS011;10898;48.072;11.682;2024-03-23T06:19:54;1.85;;;1.40;;
21472;SDS011;10898;48.072;11.682;2024-03-23T06:21:55;1.80;;;1.38;;
21472;SDS011;10898;48.072;11.682;2024-03-23T06:23:56;1.80;;;1.70;;
21472;SDS011;10898;48.072;11.682;2024-03-23T06:25:57;2.00;;;1.60;;
21472;SDS011;10898;48.072;11.682;2024-03-23T06:27:58;1.60;;;1.50;;
21472;SDS011;10898;48.072;11.682;2024-03-23T06:29:59;1.67;;;1.58;;
21472;SDS011;10898;48.072;11.682;2024-03-23T06:32:00;1.10;;;1.10;;
21472;SDS011;10898;48.072;11.682;2024-03-23T06:34:01;1.80;;;1.35;;
21472;SDS011;10898;48.072;11.682;2024-03-23T06:36:03;2.83;;;1.55;;
21472;SDS011;10898;48.072;11.682;2024-03-23T06:38:09;1.63;;;1.40;;
21472;SDS011;10898;48.072;11.682;2024-03-23T06:40:09;1.52;;;1.42;;
21472;SDS011;10898;48.072;11.682;2024-03-23T06:42:11;1.30;;;1.20;;
21472;SDS011;10898;48.072;11.682;2024-03-23T06:44:12;1.30;;;1.20;;
21472;SDS011;10898;48.072;11.682;2024-03-23T06:46:13;1.40;;;1.30;;
21472;SDS011;10898;48.072;11.682;2024-03-23T06:48:14;1.52;;;1.42;;
21472;SDS011;10898;48.072;11.682;2024-03-23T06:50:15;1.83;;;1.45;;
21472;SDS011;10898;48.072;11.682;2024-03-23T06:52:16;1.00;;;1.00;;
21472;SDS011;10898;48.072;11.682;2024-03-23T06:54:17;1.42;;;1.33;;
21472;SDS011;10898;48.072;11.682;2024-03-23T06:56:19;1.35;;;1.25;;
21472;SDS011;10898;48.072;11.682;2024-03-23T06:58:20;1.92;;;1.20;;
21472;SDS011;10898;48.072;11.682;2024-03-23T07:00:22;1.08;;;1.00;;
21472;SDS011;10898;48.072;11.682;2024-03-23T07:02:23;1.67;;;1.35;;
21472;SDS011;10898;48.072;11.682;2024-03-23T07:04:24;1.00;;;0.98;;
21472;SDS011;10898;48.072;11.682;2024-03-23T07:06:24;2.25;;;1.35;;
21472;SDS011;10898;48.072;11.682;2024-03-23T07:08:25;2.03;;;1.25;;
21472;SDS011;10898;48.072;11.682;2024-03-23T07:10:26;1.70;;;1.27;;
21472;SDS011;10898;48.072;11.682;2024-03-23T07:12:27;1.45;;;1.27;;
21472;SDS011;10898;48.072;11.682;2024-03-23T07:14:28;1.55;;;1.00;;
21472;SDS011;10898;48.072;11.682;2024-03-23T07:16:29;1.27;;;1.20;;
21472;SDS011;10898;48.072;11.682;2024-03-23T07:18:30;1.17;;;0.98;;
21472;SDS011;10898;48.072;11.682;2024-03-23T07:20:35;1.20;;;1.10;;
21472;SDS011;10898;48.072;11.682;2024-03-23T07:22:36;1.13;;;1.02;;
21472;SDS011;10898;48.072;11.682;2024-03-23T07:24:38;1.35;;;1.25;;
21472;SDS011;10898;48.072;11.682;2024-03-23T07:26:40;2.85;;;1.40;;
21472;SDS011;10898;48.072;11.682;2024-03-23T07:28:41;1.13;;;1.00;;
21472;SDS011;10898;48.072;11.682;2024-03-23T07:30:44;1.30;;;1.00;;
21472;SDS011;10898;48.072;11.682;2024-03-23T07:32:45;1.27;;;1.17;;
21472;SDS011;10898;48.072;11.682;2024-03-23T07:34:45;1.63;;;1.52;;
21472;SDS011;10898;48.072;11.682;2024-03-23T07:36:46;2.80;;;1.23;;
21472;SDS011;10898;48.072;11.682;2024-03-23T07:38:47;2.53;;;1.58;;
21472;SDS011;10898;48.072;11.682;2024-03-23T07:40:48;2.03;;;1.55;;
21472;SDS011;10898;48.072;11.682;2024-03-23T07:42:56;1.58;;;1.48;;
21472;SDS011;10898;48.072;11.682;2024-03-23T07:44:57;1.85;;;1.20;;
21472;SDS011;10898;48.072;11.682;2024-03-23T07:46:58;1.50;;;1.40;;
21472;SDS011;10898;48.072;11.682;2024-03-23T07:49:00;1.45;;;1.30;;
21472;SDS011;10898;48.072;11.682;2024-03-23T07:51:02;2.30;;;1.30;;
21472;SDS011;10898;48.072;11.682;2024-03-23T07:53:09;3.00;;;1.52;;
21472;SDS011;10898;48.072;11.682;2024-03-23T07:55:10;2.75;;;1.50;;
21472;SDS011;10898;48.072;11.682;2024-03-23T07:57:11;1.83;;;1.52;;
21472;SDS011;10898;48.072;11.682;2024-03-23T07:59:11;2.38;;;1.90;;
21472;SDS011;10898;48.072;11.682;2024-03-23T08:01:13;1.80;;;1.38;;
21472;SDS011;10898;48.072;11.682;2024-03-23T08:05:16;2.95;;;2.10;;
21472;SDS011;10898;48.072;11.682;2024-03-23T08:07:17;3.70;;;1.98;;
21472;SDS011;10898;48.072;11.682;2024-03-23T08:09:18;1.60;;;1.30;;
21472;SDS011;10898;48.072;11.682;2024-03-23T08:11:19;1.42;;;1.33;;
21472;SDS011;10898;48.072;11.682;2024-03-23T08:13:19;2.00;;;1.38;;
21472;SDS011;10898;48.072;11.682;2024-03-23T08:15:20;2.45;;;1.73;;
21472;SDS011;10898;48.072;11.682;2024-03-23T08:17:21;3.25;;;1.20;;
21472;SDS011;10898;48.072;11.682;2024-03-23T08:19:23;1.35;;;1.15;;
21472;SDS011;10898;48.072;11.682;2024-03-23T08:21:24;2.00;;;1.38;;
21472;SDS011;10898;48.072;11.682;2024-03-23T08:23:29;2.10;;;1.67;;
21472;SDS011;10898;48.072;11.682;2024-03-23T08:25:31;1.88;;;1.48;;
21472;SDS011;10898;48.072;11.682;2024-03-23T08:27:32;1.75;;;1.65;;
21472;SDS011;10898;48.072;11.682;2024-03-23T08:29:33;2.35;;;1.60;;
21472;SDS011;10898;48.072;11.682;2024-03-23T08:31:34;2.80;;;1.65;;
21472;SDS011;10898;48.072;11.682;2024-03-23T08:33:35;1.75;;;1.60;;
21472;SDS011;10898;48.072;11.682;2024-03-23T08:35:36;2.70;;;1.77;;
21472;SDS011;10898;48.072;11.682;2024-03-23T08:37:39;1.83;;;1.70;;
21472;SDS011;10898;48.072;11.682;2024-03-23T08:39:40;2.42;;;2.05;;
21472;SDS011;10898;48.072;11.682;2024-03-23T08:41:43;3.90;;;2.17;;
21472;SDS011;10898;48.072;11.682;2024-03-23T08:43:46;2.45;;;1.95;;
21472;SDS011;10898;48.072;11.682;2024-03-23T08:45:47;4.93;;;1.90;;
21472;SDS011;10898;48.072;11.682;2024-03-23T08:47:48;2.88;;;2.28;;
21472;SDS011;10898;48.072;11.682;2024-03-23T08:49:49;1.70;;;1.60;;
21472;SDS011;10898;48.072;11.682;2024-03-23T08:51:50;2.05;;;1.83;;
21472;SDS011;10898;48.072;11.682;2024-03-23T08:53:51;1.80;;;1.70;;
21472;SDS011;10898;48.072;11.682;2024-03-23T08:55:53;2.58;;;2.10;;
21472;SDS011;10898;48.072;11.682;2024-03-23T08:57:54;4.65;;;2.13;;
21472;SDS011;10898;48.072;11.682;2024-03-23T08:59:56;2.47;;;1.95;;
21472;SDS011;10898;48.072;11.682;2024-03-23T09:01:57;2.33;;;1.90;;
21472;SDS011;10898;48.072;11.682;2024-03-23T09:03:57;3.10;;;2.38;;
21472;SDS011;10898;48.072;11.682;2024-03-23T09:05:58;2.97;;;2.08;;
21472;SDS011;10898;48.072;11.682;2024-03-23T09:07:59;3.10;;;2.60;;
21472;SDS011;10898;48.072;11.682;2024-03-23T09:10:00;2.97;;;2.35;;
21472;SDS011;10898;48.072;11.682;2024-03-23T09:12:01;2.95;;;2.65;;
21472;SDS011;10898;48.072;11.682;2024-03-23T09:14:02;3.35;;;2.40;;
21472;SDS011;10898;48.072;11.682;2024-03-23T09:16:04;4.60;;;2.40;;
21472;SDS011;10898;48.072;11.682;2024-03-23T09:18:05;2.63;;;2.40;;
21472;SDS011;10898;48.072;11.682;2024-03-23T09:20:06;3.10;;;2.80;;
21472;SDS011;10898;48.072;11.682;2024-03-23T09:22:09;3.28;;;2.50;;
21472;SDS011;10898;48.072;11.682;2024-03-23T09:24:09;3.55;;;2.28;;
21472;SDS011;10898;48.072;11.682;2024-03-23T09:26:10;2.42;;;2.22;;
21472;SDS011;10898;48.072;11.682;2024-03-23T09:28:11;2.50;;;2.30;;
21472;SDS011;10898;48.072;11.682;2024-03-23T09:30:12;2.88;;;2.13;;
21472;SDS011;10898;48.072;11.682;2024-03-23T09:32:16;2.40;;;2.00;;
21472;SDS011;10898;48.072;11.682;2024-03-23T09:34:17;2.75;;;2.55;;
21472;SDS011;10898;48.072;11.682;2024-03-23T09:36:18;4.28;;;2.72;;
21472;SDS011;10898;48.072;11.682;2024-03-23T09:38:18;3.35;;;2.50;;
21472;SDS011;10898;48.072;11.682;2024-03-23T09:40:19;3.00;;;2.40;;
21472;SDS011;10898;48.072;11.682;2024-03-23T09:42:20;2.50;;;2.30;;
21472;SDS011;10898;48.072;11.682;2024-03-23T09:44:21;2.45;;;2.25;;
21472;SDS011;10898;48.072;11.682;2024-03-23T09:46:22;2.40;;;2.13;;
21472;SDS011;10898;48.072;11.682;2024-03-23T09:48:23;2.60;;;2.20;;
21472;SDS011;10898;48.072;11.682;2024-03-23T09:50:24;1.42;;;1.33;;
21472;SDS011;10898;48.072;11.682;2024-03-23T09:52:28;1.75;;;1.45;;
21472;SDS011;10898;48.072;11.682;2024-03-23T09:54:29;1.85;;;1.67;;
21472;SDS011;10898;48.072;11.682;2024-03-23T09:56:30;1.42;;;1.33;;
21472;SDS011;10898;48.072;11.682;2024-03-23T09:58:31;3.78;;;1.20;;
21472;SDS011;10898;48.072;11.682;2024-03-23T10:00:35;1.42;;;1.33;;
21472;SDS011;10898;48.072;11.682;2024-03-23T10:02:36;2.05;;;1.70;;
21472;SDS011;10898;48.072;11.682;2024-03-23T10:06:39;3.40;;;1.60;;
21472;SDS011;10898;48.072;11.682;2024-03-23T10:08:40;1.30;;;1.20;;
21472;SDS011;10898;48.072;11.682;2024-03-23T10:10:41;1.73;;;1.25;;
21472;SDS011;10898;48.072;11.682;2024-03-23T10:12:45;1.70;;;1.60;;
21472;SDS011;10898;48.072;11.682;2024-03-23T10:14:55;1.17;;;1.13;;
21472;SDS011;10898;48.072;11.682;2024-03-23T10:16:59;1.48;;;1.30;;
21472;SDS011;10898;48.072;11.682;2024-03-23T10:19:14;1.50;;;1.40;;
21472;SDS011;10898;48.072;11.682;2024-03-23T10:21:31;1.50;;;1.40;;
21472;SDS011;10898;48.072;11.682;2024-03-23T10:23:33;0.93;;;0.93;;
21472;SDS011;10898;48.072;11.682;2024-03-23T10:25:34;1.00;;;1.00;;
21472;SDS011;10898;48.072;11.682;2024-03-23T10:27:35;1.13;;;0.80;;
21472;SDS011;10898;48.072;11.682;2024-03-23T10:29:36;0.90;;;0.90;;
21472;SDS011;10898;48.072;11.682;2024-03-23T10:31:36;1.20;;;1.10;;
21472;SDS011;10898;48.072;11.682;2024-03-23T10:33:38;1.00;;;1.00;;
21472;SDS011;10898;48.072;11.682;2024-03-23T10:35:45;1.27;;;1.20;;
21472;SDS011;10898;48.072;11.682;2024-03-23T10:37:48;1.20;;;1.10;;
21472;SDS011;10898;48.072;11.682;2024-03-23T10:39:51;1.67;;;1.52;;
21472;SDS011;10898;48.072;11.682;2024-03-23T10:41:52;1.10;;;1.02;;
21472;SDS011;10898;48.072;11.682;2024-03-23T10:43:56;1.13;;;1.13;;
21472;SDS011;10898;48.072;11.682;2024-03-23T10:45:59;1.23;;;1.13;;
21472;SDS011;10898;48.072;11.682;2024-03-23T10:48:00;1.13;;;1.02;;
21472;SDS011;10898;48.072;11.682;2024-03-23T10:50:01;1.00;;;1.00;;
21472;SDS011;10898;48.072;11.682;2024-03-23T10:52:03;1.25;;;1.10;;
21472;SDS011;10898;48.072;11.682;2024-03-23T10:54:05;1.08;;;1.00;;
21472;SDS011;10898;48.072;11.682;2024-03-23T10:56:07;1.87;;;1.07;;
21472;SDS011;10898;48.072;11.682;2024-03-23T10:58:10;1.23;;;1.13;;
21472;SDS011;10898;48.072;11.682;2024-03-23T11:00:12;1.15;;;1.02;;
21472;SDS011;10898;48.072;11.682;2024-03-23T11:02:18;1.00;;;0.90;;
21472;SDS011;10898;48.072;11.682;2024-03-23T11:04:29;0.90;;;0.90;;
21472;SDS011;10898;48.072;11.682;2024-03-23T11:06:34;0.90;;;0.90;;
21472;SDS011;10898;48.072;11.682;2024-03-23T11:08:42;1.00;;;1.00;;
21472;SDS011;10898;48.072;11.682;2024-03-23T11:10:43;1.20;;;1.15;;
21472;SDS011;10898;48.072;11.682;2024-03-23T11:12:44;0.90;;;0.90;;
21472;SDS011;10898;48.072;11.682;2024-03-23T11:14:45;1.17;;;1.10;;
21472;SDS011;10898;48.072;11.682;2024-03-23T11:16:48;1.00;;;0.90;;
21472;SDS011;10898;48.072;11.682;2024-03-23T11:21:54;1.25;;;1.15;;
21472;SDS011;10898;48.072;11.682;2024-03-23T11:24:12;0.90;;;0.90;;
21472;SDS011;10898;48.072;11.682;2024-03-23T11:26:13;1.05;;;1.00;;
21472;SDS011;10898;48.072;11.682;2024-03-23T11:28:14;1.50;;;1.33;;
21472;SDS011;10898;48.072;11.682;2024-03-23T11:32:18;2.15;;;1.10;;
21472;SDS011;10898;48.072;11.682;2024-03-23T11:34:19;1.10;;;1.10;;
21472;SDS011;10898;48.072;11.682;2024-03-23T11:36:20;1.60;;;0.90;;
21472;SDS011;10898;48.072;11.682;2024-03-23T11:38:21;1.30;;;1.20;;
21472;SDS011;10898;48.072;11.682;2024-03-23T11:40:22;1.08;;;1.00;;
21472;SDS011;10898;48.072;11.682;2024-03-23T11:42:23;0.95;;;0.95;;
21472;SDS011;10898;48.072;11.682;2024-03-23T11:44:27;1.02;;;1.00;;
21472;SDS011;10898;48.072;11.682;2024-03-23T11:46:28;1.10;;;1.00;;
21472;SDS011;10898;48.072;11.682;2024-03-23T11:48:29;1.25;;;1.15;;
21472;SDS011;10898;48.072;11.682;2024-03-23T11:50:30;2.10;;;1.15;;
21472;SDS011;10898;48.072;11.682;2024-03-23T11:52:31;2.57;;;1.10;;
21472;SDS011;10898;48.072;11.682;2024-03-23T11:54:32;1.33;;;1.20;;
21472;SDS011;10898;48.072;11.682;2024-03-23T11:56:33;1.30;;;1.30;;
21472;SDS011;10898;48.072;11.682;2024-03-23T11:58:34;1.40;;;1.30;;
21472;SDS011;10898;48.072;11.682;2024-03-23T12:00:35;1.40;;;1.30;;
21472;SDS011;10898;48.072;11.682;2024-03-23T12:02:36;1.48;;;1.38;;
21472;SDS011;10898;48.072;11.682;2024-03-23T12:04:37;1.50;;;1.40;;
21472;SDS011;10898;48.072;11.682;2024-03-23T12:08:40;2.92;;;1.40;;
21472;SDS011;10898;48.072;11.682;2024-03-23T12:10:43;2.65;;;1.55;;
21472;SDS011;10898;48.072;11.682;2024-03-23T12:12:45;3.75;;;1.67;;
21472;SDS011;10898;48.072;11.682;2024-03-23T12:15:01;2.10;;;1.50;;
21472;SDS011;10898;48.072;11.682;2024-03-23T12:17:12;1.33;;;1.23;;
21472;SDS011;10898;48.072;11.682;2024-03-23T12:19:14;3.95;;;1.83;;
21472;SDS011;10898;48.072;11.682;2024-03-23T12:21:15;1.67;;;1.58;;
21472;SDS011;10898;48.072;11.682;2024-03-23T12:23:17;1.37;;;1.27;;
21472;SDS011;10898;48.072;11.682;2024-03-23T12:25:18;2.42;;;1.70;;
21472;SDS011;10898;48.072;11.682;2024-03-23T12:27:19;2.55;;;1.98;;
21472;SDS011;10898;48.072;11.682;2024-03-23T12:29:20;4.75;;;1.88;;
21472;SDS011;10898;48.072;11.682;2024-03-23T12:31:21;3.03;;;1.63;;
21472;SDS011;10898;48.072;11.682;2024-03-23T12:33:21;3.00;;;2.00;;
21472;SDS011;10898;48.072;11.682;2024-03-23T12:35:22;1.88;;;1.75;;
21472;SDS011;10898;48.072;11.682;2024-03-23T12:37:23;1.65;;;1.55;;
21472;SDS011;10898;48.072;11.682;2024-03-23T12:39:24;2.42;;;1.85;;
21472;SDS011;10898;48.072;11.682;2024-03-23T12:41:25;2.13;;;1.60;;
21472;SDS011;10898;48.072;11.682;2024-03-23T12:43:26;1.88;;;1.77;;
21472;SDS011;10898;48.072;11.682;2024-03-23T12:45:27;2.20;;;1.90;;
21472;SDS011;10898;48.072;11.682;2024-03-23T12:47:28;3.05;;;1.98;;
21472;SDS011;10898;48.072;11.682;2024-03-23T12:49:30;2.58;;;2.38;;
21472;SDS011;10898;48.072;11.682;2024-03-23T12:51:32;2.15;;;1.92;;
21472;SDS011;10898;48.072;11.682;2024-03-23T12:53:33;3.67;;;1.87;;
21472;SDS011;10898;48.072;11.682;2024-03-23T12:55:34;2.45;;;1.98;;
21472;SDS011;10898;48.072;11.682;2024-03-23T12:57:36;1.83;;;1.73;;
21472;SDS011;10898;48.072;11.682;2024-03-23T12:59:37;4.15;;;1.80;;
21472;SDS011;10898;48.072;11.682;2024-03-23T13:01:38;2.00;;;1.80;;
21472;SDS011;10898;48.072;11.682;2024-03-23T13:03:39;2.03;;;1.80;;
21472;SDS011;10898;48.072;11.682;2024-03-23T13:05:41;2.20;;;1.98;;